createdAt,value
2022-09-04T00:00:00.708Z,15.10
2022-09-04T00:05:20.091Z,15.90
2022-09-04T00:10:34.655Z,20.60
2022-09-04T00:15:43.938Z,15.40
2022-09-04T00:20:54.907Z,16.00
2022-09-04T00:26:08.761Z,16.00
2022-09-04T00:31:29.155Z,16.00
2022-09-04T00:36:40.078Z,15.50
2022-09-04T00:42:01.084Z,16.30
2022-09-04T00:47:34.157Z,11.70
2022-09-04T00:52:58.584Z,17.20
2022-09-04T00:58:24.541Z,19.10
2022-09-04T01:04:00.115Z,12.40
2022-09-04T01:09:34.013Z,11.10
2022-09-04T01:14:49.141Z,15.00
2022-09-04T01:20:08.643Z,14.00
2022-09-04T01:25:30.195Z,15.00
2022-09-04T01:30:49.230Z,12.90
2022-09-04T01:36:05.652Z,11.90
2022-09-04T01:41:18.406Z,13.70
2022-09-04T01:46:44.797Z,13.60
2022-09-04T01:52:02.738Z,16.50
2022-09-04T01:57:23.005Z,11.80
2022-09-04T02:02:37.491Z,12.70
2022-09-04T02:07:49.234Z,12.90
2022-09-04T02:13:08.206Z,13.30
2022-09-04T02:18:31.423Z,13.20
2022-09-04T02:23:45.596Z,10.30
2022-09-04T02:28:58.991Z,12.90
2022-09-04T02:34:13.040Z,15.10
2022-09-04T02:39:31.944Z,15.10
2022-09-04T02:44:47.489Z,14.90
2022-09-04T02:50:03.956Z,13.80
2022-09-04T02:55:30.496Z,10.70
2022-09-04T03:00:44.631Z,13.70
2022-09-04T03:05:56.786Z,12.80
2022-09-04T03:11:09.958Z,11.30
2022-09-04T03:16:24.668Z,10.40
2022-09-04T03:21:35.732Z,10.90
2022-09-04T03:26:45.316Z,11.90
2022-09-04T03:32:00.329Z,10.80
2022-09-04T03:37:19.539Z,11.50
2022-09-04T03:42:34.694Z,11.60
2022-09-04T03:47:49.810Z,11.20
2022-09-04T03:53:03.626Z,10.50
2022-09-04T03:58:19.631Z,9.10
2022-09-04T04:04:00.166Z,15.50
2022-09-04T04:09:29.917Z,10.80
2022-09-04T04:14:52.147Z,9.10
2022-09-04T04:20:10.890Z,10.70
2022-09-04T04:25:29.102Z,9.70
2022-09-04T04:30:45.822Z,11.60
2022-09-04T04:36:00.514Z,12.10
2022-09-04T04:41:30.867Z,14.40
2022-09-04T04:46:54.903Z,38.40
2022-09-04T04:52:26.740Z,222.00
2022-09-04T04:57:41.102Z,117.60
2022-09-04T05:03:00.708Z,27.70
2022-09-04T05:08:15.106Z,25.90
2022-09-04T05:13:30.493Z,16.60
2022-09-04T05:18:44.931Z,16.40
2022-09-04T05:23:58.085Z,13.30
2022-09-04T05:29:10.918Z,10.60
2022-09-04T05:34:27.743Z,12.10
2022-09-04T05:39:42.439Z,10.80
2022-09-04T05:44:58.549Z,11.80
2022-09-04T05:50:26.840Z,8.10
2022-09-04T05:55:54.095Z,10.00
2022-09-04T06:01:13.690Z,5.50
2022-09-04T06:06:26.273Z,6.40
2022-09-04T06:11:49.809Z,6.40
2022-09-04T06:17:15.831Z,5.40
2022-09-04T06:23:03.030Z,9.20
2022-09-04T06:28:31.641Z,4.90
2022-09-04T06:34:00.827Z,4.20
2022-09-04T06:39:31.307Z,5.00
2022-09-04T06:44:49.650Z,8.60
2022-09-04T06:50:21.116Z,4.00
2022-09-04T06:55:35.973Z,4.70
2022-09-04T07:00:53.330Z,5.10
2022-09-04T07:06:09.054Z,4.70
2022-09-04T07:11:32.705Z,6.30
2022-09-04T07:16:45.801Z,6.20
2022-09-04T07:22:05.284Z,3.40
2022-09-04T07:27:17.535Z,4.40
2022-09-04T07:32:29.077Z,3.30
2022-09-04T07:37:41.733Z,4.00
2022-09-04T07:42:53.394Z,2.80
2022-09-04T07:48:12.680Z,3.80
2022-09-04T07:53:32.293Z,2.80
2022-09-04T07:58:56.704Z,3.40
2022-09-04T08:04:25.238Z,3.90
2022-09-04T08:09:52.707Z,2.90
2022-09-04T08:15:14.311Z,3.30
2022-09-04T08:20:42.153Z,3.00
2022-09-04T08:26:00.122Z,3.60
2022-09-04T08:31:14.579Z,5.00
2022-09-04T08:36:32.432Z,2.60
2022-09-04T08:42:08.101Z,4.00
2022-09-04T08:47:45.234Z,3.60
2022-09-04T08:53:26.237Z,5.70
2022-09-04T08:59:11.194Z,4.00
2022-09-04T09:05:09.999Z,2.30
2022-09-04T09:10:36.274Z,5.30
2022-09-04T09:16:19.390Z,4.40
2022-09-04T09:21:40.299Z,4.90
2022-09-04T09:27:00.055Z,4.70
2022-09-04T09:32:36.519Z,4.90
2022-09-04T09:38:07.127Z,3.10
2022-09-04T09:43:36.018Z,4.00
2022-09-04T09:49:19.769Z,4.60
2022-09-04T09:54:50.486Z,3.80
2022-09-04T10:00:21.285Z,3.70
2022-09-04T10:05:59.296Z,15.20
2022-09-04T10:11:26.359Z,9.50
2022-09-04T10:17:01.766Z,27.10
2022-09-04T10:22:33.143Z,21.80
2022-09-04T10:28:39.648Z,27.40
2022-09-04T10:34:06.058Z,46.40
2022-09-04T10:39:41.399Z,208.10
2022-09-04T10:45:20.545Z,113.10
2022-09-04T10:50:35.388Z,45.00
2022-09-04T10:56:02.866Z,179.60
2022-09-04T11:01:55.051Z,303.50
2022-09-04T11:07:28.988Z,303.50
2022-09-04T11:12:52.344Z,112.00
2022-09-04T11:18:38.014Z,59.10
2022-09-04T11:24:33.453Z,16.30
2022-09-04T11:29:55.928Z,9.60
2022-09-04T11:35:52.510Z,7.50
2022-09-04T11:41:29.039Z,6.40
2022-09-04T11:47:08.756Z,5.70
2022-09-04T11:52:36.062Z,6.50
2022-09-04T11:58:03.561Z,5.80
2022-09-04T12:03:39.617Z,6.60
2022-09-04T12:09:18.527Z,4.90
2022-09-04T12:14:43.119Z,8.50
2022-09-04T12:20:24.949Z,7.40
2022-09-04T12:25:44.764Z,6.40
2022-09-04T12:31:07.866Z,6.20
2022-09-04T12:36:48.828Z,7.40
2022-09-04T12:42:03.569Z,6.60
2022-09-04T12:47:22.548Z,5.90
2022-09-04T12:52:51.202Z,4.90
2022-09-04T12:58:10.273Z,4.80
2022-09-04T13:03:26.271Z,5.10
2022-09-04T13:08:46.784Z,5.60
2022-09-04T13:14:06.358Z,4.90
2022-09-04T13:19:20.447Z,5.30
2022-09-04T13:24:44.434Z,4.50
2022-09-04T13:30:03.799Z,6.70
2022-09-04T13:35:22.252Z,6.20
2022-09-04T13:40:44.669Z,5.80
2022-09-04T13:45:54.311Z,6.90
2022-09-04T13:51:13.390Z,6.70
2022-09-04T13:56:26.412Z,10.20
2022-09-04T14:01:36.987Z,9.70
2022-09-04T14:06:44.873Z,6.20
2022-09-04T14:12:12.067Z,4.90
2022-09-04T14:17:27.088Z,4.20
2022-09-04T14:22:45.394Z,5.00
2022-09-04T14:28:03.433Z,10.20
2022-09-04T14:33:24.043Z,5.50
2022-09-04T14:39:05.241Z,5.30
2022-09-04T14:44:31.119Z,9.80
2022-09-04T14:49:47.466Z,6.60
2022-09-04T14:54:57.782Z,6.30
2022-09-04T15:00:14.745Z,11.50
2022-09-04T15:05:27.348Z,10.00
2022-09-04T15:10:49.977Z,4.70
2022-09-04T15:15:59.958Z,5.10
2022-09-04T15:21:11.294Z,4.20
2022-09-04T15:26:25.202Z,3.90
2022-09-04T15:31:35.371Z,6.00
2022-09-04T15:36:41.786Z,7.80
2022-09-04T15:41:50.060Z,7.80
2022-09-04T15:47:06.305Z,7.30
2022-09-04T15:52:30.565Z,9.90
2022-09-04T15:57:51.100Z,5.30
2022-09-04T16:03:07.016Z,7.10
2022-09-04T16:08:23.450Z,5.70
2022-09-04T16:13:58.223Z,7.30
2022-09-04T16:19:15.187Z,8.00
2022-09-04T16:24:29.730Z,5.60
2022-09-04T16:29:38.213Z,8.70
2022-09-04T16:34:51.970Z,8.50
2022-09-04T16:40:12.428Z,11.40
2022-09-04T16:45:24.810Z,12.00
2022-09-04T16:50:39.911Z,8.20
2022-09-04T16:55:56.133Z,7.90
2022-09-04T17:01:14.119Z,7.70
2022-09-04T17:06:27.602Z,7.50
2022-09-04T17:11:42.945Z,6.60
2022-09-04T17:16:58.745Z,11.50
2022-09-04T17:26:28.090Z,10.20
2022-09-04T17:29:07.540Z,12.40
2022-09-04T17:38:02.999Z,7.60
2022-09-04T17:40:46.391Z,9.60
2022-09-04T17:45:10.722Z,13.30
2022-09-04T17:50:19.451Z,8.90
2022-09-04T17:55:26.909Z,7.20
2022-09-04T18:00:49.886Z,7.70
2022-09-04T18:06:03.049Z,10.40
2022-09-04T18:11:18.365Z,11.60
2022-09-04T18:22:25.039Z,13.20
2022-09-04T18:27:33.048Z,7.40
2022-09-04T18:37:06.586Z,8.20
2022-09-04T18:38:16.862Z,5.50
2022-09-04T18:50:20.770Z,7.80
2022-09-04T18:50:53.511Z,12.20
2022-09-04T18:54:37.770Z,6.00
2022-09-04T18:59:53.646Z,5.00
2022-09-04T19:05:18.051Z,4.80
2022-09-04T19:10:27.126Z,5.40
2022-09-04T19:15:59.795Z,7.10
2022-09-04T19:21:30.402Z,12.10
2022-09-04T19:26:42.375Z,5.80
2022-09-04T19:31:54.762Z,6.10
2022-09-04T19:38:06.409Z,4.60
2022-09-04T19:46:03.964Z,6.00
2022-09-04T19:48:18.920Z,6.90
2022-09-04T19:53:46.937Z,6.80
2022-09-04T19:59:03.653Z,9.40
2022-09-04T20:04:20.466Z,12.70
2022-09-04T20:09:33.552Z,7.60
2022-09-04T20:14:45.897Z,9.40
2022-09-04T20:19:56.342Z,5.40
2022-09-04T20:25:24.440Z,10.40
2022-09-04T20:30:32.073Z,10.00
2022-09-04T20:35:44.694Z,6.20
2022-09-04T20:40:56.478Z,8.10
2022-09-04T20:50:20.088Z,6.70
2022-09-04T20:52:54.406Z,8.00
2022-09-04T21:03:12.414Z,7.10
2022-09-04T21:03:35.685Z,4.60
2022-09-04T21:08:40.138Z,4.00
2022-09-04T21:13:50.920Z,4.20
2022-09-04T21:19:29.258Z,3.10
2022-09-04T21:25:00.539Z,2.50
2022-09-04T21:30:12.777Z,4.60
2022-09-04T21:35:24.349Z,3.50
2022-09-04T21:40:55.482Z,3.70
2022-09-04T21:46:20.868Z,4.20
2022-09-04T21:51:56.582Z,3.50
2022-09-04T22:01:25.388Z,3.20
2022-09-04T22:03:35.220Z,4.10
2022-09-04T22:13:33.170Z,4.00
2022-09-04T22:14:30.666Z,1.80
2022-09-04T22:20:15.366Z,3.30
2022-09-04T22:25:39.955Z,3.70
2022-09-04T22:31:09.008Z,1.70
2022-09-04T22:36:50.395Z,4.80
2022-09-04T22:42:47.503Z,2.50
2022-09-04T22:48:15.769Z,3.80
2022-09-04T22:53:40.577Z,1.00
2022-09-04T22:59:25.994Z,1.70
2022-09-04T23:04:51.703Z,2.80
2022-09-04T23:13:46.537Z,1.80
2022-09-04T23:16:05.941Z,2.00
2022-09-04T23:26:37.587Z,2.10
2022-09-04T23:27:28.321Z,9.20
2022-09-04T23:33:03.836Z,2.40
2022-09-04T23:38:44.706Z,1.30
2022-09-04T23:44:47.517Z,2.40
2022-09-04T23:50:17.946Z,3.60
2022-09-04T23:55:56.726Z,1.90
